createdAt,value
2019-04-14T00:22:44.632Z,54.58
2019-04-14T00:23:44.183Z,55.09
2019-04-14T00:24:44.595Z,55.82
2019-04-14T00:25:44.163Z,57.52
2019-04-14T00:26:44.481Z,50.68
2019-04-14T00:27:45.274Z,50.18
2019-04-14T00:28:44.737Z,52.53
2019-04-14T00:29:44.118Z,55.90
2019-04-14T00:30:44.792Z,54.88
2019-04-14T00:31:44.096Z,55.82
2019-04-14T00:32:44.393Z,56.66
2019-04-14T00:33:45.291Z,58.69
2019-04-14T00:34:44.231Z,59.63
2019-04-14T00:35:44.908Z,58.34
2019-04-14T00:36:44.043Z,55.29
2019-04-14T00:37:44.501Z,55.60
2019-04-14T00:38:44.173Z,55.40
2019-04-14T00:39:44.366Z,57.22
2019-04-14T00:40:44.001Z,58.44
2019-04-14T00:41:50.452Z,60.36
2019-04-14T00:43:09.229Z,60.60
2019-04-14T00:44:09.924Z,62.12
2019-04-14T00:45:09.143Z,62.32
2019-04-14T00:46:09.952Z,61.95
2019-04-14T00:47:09.320Z,61.04
2019-04-14T00:48:13.933Z,61.04
2019-04-14T00:49:09.874Z,60.63
2019-04-14T00:50:08.721Z,60.73
2019-04-14T00:51:09.156Z,59.61
2019-04-14T00:52:09.953Z,58.59
2019-04-14T00:53:09.819Z,57.98
2019-04-14T00:54:08.884Z,58.67
2019-04-14T00:55:09.725Z,58.88
2019-04-14T00:56:08.650Z,59.28
2019-04-14T00:57:09.423Z,58.27
2019-04-14T00:58:08.635Z,56.03
2019-04-14T00:59:09.260Z,55.42
2019-04-14T01:00:08.608Z,54.20
2019-04-14T01:01:09.050Z,55.73
2019-04-14T01:02:09.806Z,56.71
2019-04-14T01:03:09.120Z,57.76
2019-04-14T01:04:09.758Z,55.52
2019-04-14T01:05:08.931Z,53.57
2019-04-14T01:06:09.638Z,52.96
2019-04-14T01:07:08.755Z,52.73
2019-04-14T01:08:09.621Z,53.16
2019-04-14T01:09:08.629Z,52.43
2019-04-14T01:10:08.499Z,49.81
2019-04-14T01:11:09.539Z,46.02
2019-04-14T01:12:08.472Z,44.28
2019-04-14T01:13:11.108Z,43.38
2019-04-14T01:14:08.457Z,42.55
2019-04-14T01:15:09.296Z,44.64
2019-04-14T01:16:14.165Z,44.83
2019-04-14T01:17:09.518Z,44.18
2019-04-14T01:18:08.415Z,44.64
2019-04-14T01:19:09.038Z,43.51
2019-04-14T01:20:08.404Z,41.69
2019-04-14T01:21:08.913Z,37.86
2019-04-14T01:22:09.473Z,36.84
2019-04-14T01:23:08.516Z,40.25
2019-04-14T01:24:09.567Z,39.86
2019-04-14T01:25:08.631Z,37.88
2019-04-14T01:26:09.325Z,36.56
2019-04-14T01:27:08.313Z,37.48
2019-04-14T01:28:08.973Z,39.06
2019-04-14T01:29:08.298Z,40.67
2019-04-14T01:30:08.819Z,37.34
2019-04-14T01:31:09.749Z,38.43
2019-04-14T01:32:08.802Z,38.92
2019-04-14T01:33:08.252Z,38.62
2019-04-14T01:34:08.459Z,37.23
2019-04-14T01:35:09.539Z,37.23
2019-04-14T01:36:08.221Z,36.12
2019-04-14T01:37:09.303Z,35.91
2019-04-14T01:38:08.197Z,36.51
2019-04-14T01:39:08.970Z,36.60
2019-04-14T01:40:08.175Z,36.59
2019-04-14T01:41:08.563Z,35.89
2019-04-14T01:42:09.428Z,36.47
2019-04-14T01:43:08.200Z,36.76
2019-04-14T01:44:09.085Z,36.15
2019-04-14T01:45:08.123Z,36.76
2019-04-14T01:46:16.114Z,35.34
2019-04-14T01:47:33.452Z,35.92
2019-04-14T01:48:33.054Z,32.41
2019-04-14T01:49:33.279Z,34.08
2019-04-14T01:50:33.034Z,33.97
2019-04-14T01:51:33.138Z,34.75
2019-04-14T01:52:34.144Z,33.67
2019-04-14T01:53:33.638Z,36.15
2019-04-14T01:54:32.993Z,32.25
2019-04-14T01:55:33.145Z,32.22
2019-04-14T01:56:34.099Z,31.90
2019-04-14T01:57:32.964Z,32.19
2019-04-14T01:58:33.910Z,32.87
2019-04-14T01:59:32.938Z,30.27
2019-04-14T02:00:33.730Z,31.05
2019-04-14T02:01:32.921Z,31.35
2019-04-14T02:02:33.579Z,31.35
2019-04-14T02:03:32.903Z,30.75
2019-04-14T02:04:33.413Z,32.04
2019-04-14T02:05:32.880Z,34.51
2019-04-14T02:06:33.362Z,30.15
2019-04-14T02:07:33.772Z,31.62
2019-04-14T02:08:32.923Z,30.73
2019-04-14T02:09:33.594Z,31.81
2019-04-14T02:10:32.884Z,33.23
2019-04-14T02:11:33.442Z,34.16
2019-04-14T02:12:32.819Z,35.79
2019-04-14T02:13:33.193Z,33.81
2019-04-14T02:14:32.791Z,32.93
2019-04-14T02:15:33.075Z,33.94
2019-04-14T02:16:40.189Z,35.26
2019-04-14T02:17:58.796Z,35.29
2019-04-14T02:18:58.616Z,34.72
2019-04-14T02:19:58.860Z,38.23
2019-04-14T02:20:57.941Z,38.73
2019-04-14T02:21:58.459Z,39.53
2019-04-14T02:22:57.523Z,38.50
2019-04-14T02:23:58.334Z,37.20
2019-04-14T02:24:57.505Z,35.72
2019-04-14T02:25:57.976Z,35.72
2019-04-14T02:26:57.528Z,35.54
2019-04-14T02:27:57.973Z,35.76
2019-04-14T02:28:57.478Z,37.06
2019-04-14T02:29:58.284Z,36.77
2019-04-14T02:31:10.222Z,36.59
2019-04-14T02:32:49.866Z,39.49
2019-04-14T02:34:19.201Z,38.19
2019-04-14T02:35:45.026Z,39.57
2019-04-14T02:36:39.785Z,39.85
2019-04-14T02:39:33.990Z,38.70
2019-04-14T02:40:37.058Z,38.68
2019-04-14T02:41:35.752Z,38.76
2019-04-14T02:42:36.785Z,36.43
2019-04-14T02:43:38.071Z,35.60
2019-04-14T02:44:32.063Z,34.59
2019-04-14T02:45:59.821Z,35.37
2019-04-14T02:46:56.663Z,34.17
2019-04-14T02:49:19.444Z,34.03
2019-04-14T02:50:17.595Z,33.09
2019-04-14T02:51:20.237Z,32.08
2019-04-14T02:52:47.301Z,31.97
2019-04-14T02:54:11.794Z,31.85
2019-04-14T02:55:04.360Z,31.77
2019-04-14T02:57:30.387Z,29.73
2019-04-14T03:00:24.010Z,28.87
2019-04-14T03:02:44.632Z,30.01
2019-04-14T03:03:43.102Z,29.51
2019-04-14T03:05:13.334Z,29.49
2019-04-14T03:07:36.269Z,28.77
2019-04-14T03:08:45.645Z,28.87
2019-04-14T03:09:42.007Z,28.28
2019-04-14T03:10:55.703Z,28.97
2019-04-14T03:11:38.135Z,27.97
2019-04-14T03:14:07.970Z,27.55
2019-04-14T03:15:03.499Z,27.45
2019-04-14T03:16:29.788Z,27.15
2019-04-14T03:18:02.315Z,26.64
2019-04-14T03:23:14.949Z,26.23
2019-04-14T03:24:15.834Z,26.51
2019-04-14T03:24:50.397Z,25.63
2019-04-14T03:26:06.406Z,25.91
2019-04-14T03:27:36.058Z,26.51
2019-04-14T03:28:50.826Z,25.83
2019-04-14T03:29:59.942Z,26.41
2019-04-14T03:31:09.912Z,26.20
2019-04-14T03:34:52.088Z,25.80
2019-04-14T03:45:18.518Z,23.81
2019-04-14T03:46:43.321Z,24.78
2019-04-14T03:47:53.142Z,24.19
2019-04-14T03:48:54.062Z,24.19
2019-04-14T03:49:54.710Z,25.46
2019-04-14T03:50:37.072Z,24.30
2019-04-14T03:52:04.102Z,25.37
2019-04-14T03:54:20.494Z,24.89
2019-04-14T03:55:16.265Z,24.59
2019-04-14T03:56:27.031Z,24.98
2019-04-14T03:57:28.132Z,23.90
2019-04-14T03:58:27.142Z,25.06
2019-04-14T03:59:26.359Z,23.99
2019-04-14T04:00:27.074Z,24.19
2019-04-14T04:01:26.318Z,23.40
2019-04-14T04:02:27.201Z,24.38
2019-04-14T04:03:26.304Z,23.20
2019-04-14T04:04:27.480Z,24.38
2019-04-14T04:05:26.279Z,22.82
2019-04-14T04:06:27.088Z,23.12
2019-04-14T04:07:26.259Z,24.19
2019-04-14T04:08:26.786Z,23.62
2019-04-14T04:09:26.239Z,24.69
2019-04-14T04:10:27.105Z,24.30
2019-04-14T04:11:26.221Z,24.30
2019-04-14T04:12:27.153Z,25.56
2019-04-14T04:13:26.199Z,25.56
2019-04-14T04:14:27.094Z,24.89
2019-04-14T04:15:26.181Z,25.00
2019-04-14T04:16:26.915Z,24.70
2019-04-14T04:17:27.513Z,24.61
2019-04-14T04:18:26.591Z,23.44
2019-04-14T04:19:27.219Z,23.24
2019-04-14T04:20:26.420Z,23.24
2019-04-14T04:21:26.964Z,23.54
2019-04-14T04:22:26.128Z,24.02
2019-04-14T04:23:27.112Z,23.73
2019-04-14T04:24:27.806Z,22.75
2019-04-14T04:25:26.857Z,24.20
2019-04-14T04:26:26.070Z,24.49
2019-04-14T04:27:26.568Z,22.44
2019-04-14T04:28:26.052Z,24.49
2019-04-14T04:29:26.603Z,24.97
2019-04-14T04:30:26.030Z,24.89
2019-04-14T04:31:26.412Z,25.87
2019-04-14T04:32:26.009Z,24.90
2019-04-14T04:33:26.407Z,24.41
2019-04-14T04:34:27.294Z,23.92
2019-04-14T04:35:26.065Z,23.73
2019-04-14T04:36:27.027Z,24.60
2019-04-14T04:37:25.956Z,24.51
2019-04-14T04:38:26.912Z,24.21
2019-04-14T04:39:25.932Z,25.00
2019-04-14T04:40:26.840Z,24.12
2019-04-14T04:41:25.911Z,24.01
2019-04-14T04:42:26.529Z,22.54
2019-04-14T04:43:25.885Z,22.05
2019-04-14T04:44:26.946Z,23.62
2019-04-14T04:45:25.870Z,24.19
2019-04-14T04:46:26.589Z,21.85
2019-04-14T04:47:25.848Z,24.47
2019-04-14T04:48:26.391Z,23.70
2019-04-14T04:49:28.165Z,23.70
2019-04-14T04:50:26.060Z,22.24
2019-04-14T04:51:26.736Z,23.21
2019-04-14T04:52:25.947Z,23.70
2019-04-14T04:53:26.708Z,24.19
2019-04-14T04:54:25.784Z,24.09
2019-04-14T04:55:26.289Z,23.41
2019-04-14T04:56:25.754Z,23.51
2019-04-14T04:57:26.431Z,23.80
2019-04-14T04:58:26.269Z,24.40
2019-04-14T04:59:25.716Z,23.51
2019-04-14T05:00:26.625Z,24.97
2019-04-14T05:01:25.700Z,23.70
2019-04-14T05:02:26.637Z,23.90
2019-04-14T05:03:25.678Z,24.48
2019-04-14T05:04:26.600Z,23.12
2019-04-14T05:05:25.657Z,23.42
2019-04-14T05:06:26.634Z,22.75
2019-04-14T05:07:25.637Z,23.43
2019-04-14T05:08:26.296Z,24.30
2019-04-14T05:09:25.618Z,23.52
2019-04-14T05:10:26.339Z,25.40
2019-04-14T05:11:25.596Z,25.01
2019-04-14T05:12:26.295Z,25.20
2019-04-14T05:13:25.575Z,25.40
2019-04-14T05:14:26.200Z,25.98
2019-04-14T05:15:25.554Z,24.62
2019-04-14T05:16:25.996Z,24.90
2019-04-14T05:17:25.644Z,25.51
2019-04-14T05:18:26.678Z,25.70
2019-04-14T05:19:30.350Z,25.12
2019-04-14T05:20:50.993Z,25.42
2019-04-14T05:21:51.645Z,25.52
2019-04-14T05:22:50.804Z,26.41
2019-04-14T05:23:50.285Z,26.22
2019-04-14T05:24:50.765Z,26.42
2019-04-14T05:25:51.599Z,26.63
2019-04-14T05:26:50.611Z,26.15
2019-04-14T05:27:51.528Z,25.58
2019-04-14T05:28:50.687Z,26.37
2019-04-14T05:29:51.470Z,26.99
2019-04-14T05:30:50.425Z,26.51
2019-04-14T05:31:51.150Z,27.41
2019-04-14T05:32:50.225Z,27.63
2019-04-14T05:33:51.151Z,28.83
2019-04-14T05:34:50.264Z,29.42
2019-04-14T05:35:50.961Z,29.53
2019-04-14T05:36:50.157Z,28.76
2019-04-14T05:37:50.738Z,29.56
2019-04-14T05:38:50.138Z,29.96
2019-04-14T05:39:50.499Z,29.97
2019-04-14T05:40:50.121Z,29.28
2019-04-14T05:42:03.830Z,30.78
2019-04-14T05:43:28.389Z,30.88
2019-04-14T05:44:40.386Z,31.10
2019-04-14T05:45:39.855Z,30.52
2019-04-14T05:46:40.347Z,31.12
2019-04-14T05:47:39.682Z,30.83
2019-04-14T05:48:40.384Z,31.25
2019-04-14T05:49:45.530Z,31.56
2019-04-14T05:51:04.569Z,31.75
2019-04-14T05:52:05.584Z,31.87
2019-04-14T05:53:04.543Z,32.97
2019-04-14T05:54:05.565Z,31.60
2019-04-14T05:55:04.555Z,31.90
2019-04-14T05:56:05.637Z,32.61
2019-04-14T05:57:04.517Z,31.71
2019-04-14T05:58:05.603Z,32.23
2019-04-14T05:59:04.490Z,31.83
2019-04-14T06:00:04.469Z,32.64
2019-04-14T06:01:04.800Z,32.44
2019-04-14T06:02:04.878Z,31.84
2019-04-14T06:03:04.448Z,31.26
2019-04-14T06:04:04.663Z,31.26
2019-04-14T06:05:06.246Z,31.15
2019-04-14T06:06:04.413Z,31.96
2019-04-14T06:07:04.450Z,31.17
2019-04-14T06:08:04.387Z,29.18
2019-04-14T06:09:04.377Z,29.18
2019-04-14T06:10:04.371Z,29.28
2019-04-14T06:11:04.356Z,30.87
2019-04-14T06:12:04.345Z,29.39
2019-04-14T06:13:04.438Z,29.87
2019-04-14T06:14:04.324Z,31.36
2019-04-14T06:15:04.313Z,33.05
2019-04-14T06:16:04.307Z,29.87
2019-04-14T06:17:04.290Z,31.86
2019-04-14T06:18:04.589Z,34.14
2019-04-14T06:19:04.270Z,30.96
2019-04-14T06:20:04.262Z,34.34
2019-04-14T06:21:04.254Z,31.95
2019-04-14T06:22:04.240Z,33.93
2019-04-14T06:23:04.230Z,34.42
2019-04-14T06:24:04.266Z,31.54
2019-04-14T06:25:04.227Z,31.96
2019-04-14T06:26:04.202Z,32.14
2019-04-14T06:27:04.187Z,31.45
2019-04-14T06:28:04.174Z,32.34
2019-04-14T06:29:04.168Z,33.93
2019-04-14T06:30:04.215Z,32.74
2019-04-14T06:31:04.152Z,33.63
2019-04-14T06:32:04.136Z,34.03
2019-04-14T06:33:04.125Z,30.75
2019-04-14T06:34:04.114Z,34.11
2019-04-14T06:35:04.103Z,34.91
2019-04-14T06:36:04.196Z,34.11
2019-04-14T06:37:04.089Z,33.72
2019-04-14T06:38:05.829Z,34.31
2019-04-14T06:39:04.071Z,34.41
2019-04-14T06:40:04.057Z,34.71
2019-04-14T06:41:04.192Z,34.61
2019-04-14T06:42:04.031Z,34.21
2019-04-14T06:43:04.017Z,35.50
2019-04-14T06:44:04.010Z,34.91
2019-04-14T06:45:04.003Z,34.80
2019-04-14T06:46:04.000Z,34.71
2019-04-14T06:47:04.029Z,34.91
2019-04-14T06:48:03.978Z,33.52
2019-04-14T06:49:03.960Z,34.11
2019-04-14T06:50:03.949Z,33.80
2019-04-14T06:51:03.942Z,33.61
2019-04-14T06:52:03.927Z,34.71
2019-04-14T06:53:03.963Z,33.02
2019-04-14T06:54:03.909Z,34.51
2019-04-14T06:55:03.899Z,33.91
2019-04-14T06:56:03.887Z,34.01
2019-04-14T06:57:03.874Z,34.22
2019-04-14T06:58:03.869Z,34.82
2019-04-14T06:59:04.012Z,35.42
2019-04-14T07:00:03.847Z,33.83
2019-04-14T07:01:03.836Z,36.01
2019-04-14T07:02:03.823Z,35.82
2019-04-14T07:03:03.815Z,35.22
2019-04-14T07:04:03.856Z,34.82
2019-04-14T07:05:03.896Z,35.04
2019-04-14T07:06:03.783Z,35.63
2019-04-14T07:07:03.776Z,34.74
2019-04-14T07:08:03.767Z,35.54
2019-04-14T07:09:03.750Z,34.54
2019-04-14T07:10:03.844Z,34.62
2019-04-14T07:11:03.735Z,35.52
2019-04-14T07:12:03.839Z,35.52
2019-04-14T07:13:03.717Z,34.22
2019-04-14T07:14:03.737Z,35.32
2019-04-14T07:15:03.694Z,35.12
2019-04-14T07:16:03.783Z,35.52
2019-04-14T07:17:03.674Z,35.62
2019-04-14T07:18:03.661Z,33.73
2019-04-14T07:19:03.656Z,33.43
2019-04-14T07:20:03.651Z,35.42
2019-04-14T07:21:03.631Z,35.40
2019-04-14T07:22:03.668Z,35.22
2019-04-14T07:23:03.631Z,35.62
2019-04-14T07:24:03.597Z,34.82
2019-04-14T07:25:03.589Z,35.91
2019-04-14T07:26:03.578Z,34.62
2019-04-14T07:27:03.564Z,34.72
2019-04-14T07:28:03.606Z,35.71
2019-04-14T07:29:03.545Z,35.32
2019-04-14T07:30:03.539Z,34.62
2019-04-14T07:31:03.524Z,35.22
2019-04-14T07:32:03.515Z,35.12
2019-04-14T07:33:03.503Z,33.73
2019-04-14T07:34:03.647Z,32.03
2019-04-14T07:35:03.483Z,32.23
2019-04-14T07:36:03.474Z,32.23
2019-04-14T07:37:03.462Z,32.23
2019-04-14T07:38:03.455Z,33.91
2019-04-14T07:39:03.442Z,33.10
2019-04-14T07:40:03.483Z,34.80
2019-04-14T07:41:03.420Z,32.61
2019-04-14T07:42:03.409Z,34.59
2019-04-14T07:43:03.400Z,34.10
2019-04-14T07:44:03.387Z,34.41
2019-04-14T07:45:03.380Z,35.00
2019-04-14T07:46:03.471Z,34.91
2019-04-14T07:47:03.357Z,34.91
2019-04-14T07:48:03.350Z,34.21
2019-04-14T07:49:03.340Z,34.61
2019-04-14T07:50:14.144Z,34.41
2019-04-14T07:51:28.283Z,31.93
2019-04-14T07:52:28.270Z,31.83
2019-04-14T07:53:28.260Z,31.42
2019-04-14T07:54:56.168Z,32.21
2019-04-14T07:55:56.156Z,31.71
2019-04-14T07:56:56.207Z,33.50
2019-04-14T07:57:56.144Z,34.29
2019-04-14T07:58:56.133Z,32.41
2019-04-14T07:59:56.118Z,33.60
2019-04-14T08:00:56.110Z,34.29
2019-04-14T08:01:56.146Z,32.21
2019-04-14T08:02:56.086Z,32.01
2019-04-14T08:03:56.076Z,31.80
2019-04-14T08:04:56.063Z,31.80
2019-04-14T08:05:56.050Z,32.79
2019-04-14T08:06:56.039Z,33.78
2019-04-14T08:07:56.083Z,34.77
2019-04-14T08:08:56.020Z,34.97
2019-04-14T08:09:56.010Z,34.79
2019-04-14T08:10:56.000Z,35.08
2019-04-14T08:11:55.988Z,34.59
2019-04-14T08:12:55.981Z,34.59
2019-04-14T08:13:56.082Z,34.79
2019-04-14T08:14:55.960Z,34.80
2019-04-14T08:16:23.871Z,35.10
2019-04-14T08:17:23.863Z,34.51
2019-04-14T08:18:23.850Z,34.61
2019-04-14T08:19:23.898Z,35.50
2019-04-14T08:20:27.628Z,34.51
2019-04-14T08:21:23.820Z,34.51
2019-04-14T08:22:23.804Z,34.82
2019-04-14T08:23:23.803Z,34.13
2019-04-14T08:24:23.937Z,35.52
2019-04-14T08:25:23.778Z,35.12
2019-04-14T08:26:23.767Z,34.31
2019-04-14T08:27:23.758Z,35.52
2019-04-14T08:28:23.747Z,35.62
2019-04-14T08:29:23.742Z,34.92
2019-04-14T08:30:23.777Z,32.03
2019-04-14T08:31:23.717Z,33.22
2019-04-14T08:32:23.709Z,31.02
2019-04-14T08:33:23.697Z,31.91
2019-04-14T08:34:23.683Z,33.98
2019-04-14T08:35:23.672Z,32.29
2019-04-14T08:36:23.714Z,33.98
2019-04-14T08:37:23.651Z,35.07
2019-04-14T08:38:23.650Z,34.57
2019-04-14T08:39:23.633Z,35.07
2019-04-14T08:40:23.619Z,34.99
2019-04-14T08:41:23.616Z,35.18
2019-04-14T08:42:23.754Z,31.50
2019-04-14T08:43:23.594Z,31.40
2019-04-14T08:44:23.583Z,31.90
2019-04-14T08:45:23.576Z,32.20
2019-04-14T08:46:23.560Z,31.78
2019-04-14T08:47:23.553Z,33.37
2019-04-14T08:48:23.593Z,32.36
2019-04-14T08:49:23.536Z,33.65
2019-04-14T08:50:23.517Z,33.96
2019-04-14T08:51:23.514Z,33.86
2019-04-14T08:52:24.235Z,34.66
2019-04-14T08:53:23.492Z,34.97
2019-04-14T08:54:23.531Z,34.38
2019-04-14T08:55:23.471Z,33.96
2019-04-14T08:56:23.460Z,33.68
2019-04-14T08:57:23.448Z,33.77
2019-04-14T08:58:23.437Z,33.58
2019-04-14T08:59:23.426Z,34.77
2019-04-14T09:00:23.566Z,34.77
2019-04-14T09:01:23.414Z,34.87
2019-04-14T09:02:23.398Z,35.38
2019-04-14T09:03:23.390Z,34.29
2019-04-14T09:04:23.379Z,35.18
2019-04-14T09:05:23.368Z,35.50
2019-04-14T09:06:23.456Z,35.00
2019-04-14T09:07:23.352Z,34.59
2019-04-14T09:08:23.338Z,35.48
2019-04-14T09:09:23.323Z,34.49
2019-04-14T09:10:23.313Z,33.88
2019-04-14T09:11:23.307Z,34.17
2019-04-14T09:12:23.390Z,33.48
2019-04-14T09:13:23.283Z,34.17
2019-04-14T09:14:23.272Z,34.99
2019-04-14T09:15:23.263Z,34.89
2019-04-14T09:16:23.250Z,35.68
2019-04-14T09:17:23.237Z,35.08
2019-04-14T09:18:23.382Z,34.49
2019-04-14T09:19:23.223Z,34.00
2019-04-14T09:20:23.213Z,35.68
2019-04-14T09:21:23.201Z,35.38
2019-04-14T09:22:23.192Z,35.48
2019-04-14T09:23:23.180Z,35.38
2019-04-14T09:24:23.271Z,34.79
2019-04-14T09:25:23.161Z,35.29
2019-04-14T09:26:23.146Z,34.39
2019-04-14T09:27:23.141Z,35.58
2019-04-14T09:28:23.123Z,34.19
2019-04-14T09:29:23.114Z,34.39
2019-04-14T09:30:23.151Z,35.18
2019-04-14T09:31:23.095Z,34.99
2019-04-14T09:32:23.085Z,35.48
2019-04-14T09:33:23.073Z,35.08
2019-04-14T09:34:23.063Z,35.18
2019-04-14T09:35:23.053Z,35.58
2019-04-14T09:36:23.195Z,35.90
2019-04-14T09:37:23.032Z,35.40
2019-04-14T09:38:23.026Z,35.30
2019-04-14T09:39:23.014Z,35.30
2019-04-14T09:40:23.003Z,35.29
2019-04-14T09:41:22.987Z,35.99
2019-04-14T09:42:23.031Z,35.50
2019-04-14T09:43:22.973Z,35.40
2019-04-14T09:44:22.963Z,35.29
2019-04-14T09:45:22.947Z,34.59
2019-04-14T09:46:22.937Z,34.57
2019-04-14T09:47:22.931Z,33.98
2019-04-14T09:48:22.964Z,33.78
2019-04-14T09:49:22.908Z,34.75
2019-04-14T09:50:22.897Z,33.96
2019-04-14T09:51:22.885Z,33.67
2019-04-14T09:52:22.879Z,34.85
2019-04-14T09:53:22.866Z,35.05
2019-04-14T09:54:23.006Z,34.46
2019-04-14T09:55:23.688Z,34.16
2019-04-14T09:56:22.838Z,34.56
2019-04-14T09:57:22.825Z,35.66
2019-04-14T09:58:22.820Z,34.68
2019-04-14T09:59:22.804Z,35.36
2019-04-14T10:00:22.844Z,35.57
2019-04-14T10:01:22.789Z,34.59
2019-04-14T10:02:22.778Z,33.89
2019-04-14T10:03:22.764Z,33.98
2019-04-14T10:04:22.761Z,34.77
2019-04-14T10:05:22.746Z,34.57
2019-04-14T10:06:22.783Z,33.88
2019-04-14T10:07:22.724Z,34.57
2019-04-14T10:08:22.712Z,34.97
2019-04-14T10:09:22.705Z,35.15
2019-04-14T10:10:22.691Z,35.27
2019-04-14T10:11:22.687Z,34.57
2019-04-14T10:12:22.822Z,34.79
2019-04-14T10:13:22.662Z,34.69
2019-04-14T10:14:22.654Z,35.78
2019-04-14T10:15:22.640Z,35.18
2019-04-14T10:16:22.636Z,35.29
2019-04-14T10:17:22.617Z,35.18
2019-04-14T10:18:22.659Z,35.18
2019-04-14T10:19:22.604Z,35.29
2019-04-14T10:20:22.588Z,35.00
2019-04-14T10:21:22.583Z,35.98
2019-04-14T10:22:33.349Z,35.60
2019-04-14T10:23:47.420Z,35.48
2019-04-14T10:24:47.410Z,35.48
2019-04-14T10:25:47.399Z,36.10
2019-04-14T10:26:47.391Z,35.18
2019-04-14T10:27:47.380Z,35.78
2019-04-14T10:28:47.520Z,35.58
2019-04-14T10:29:47.359Z,37.56
2019-04-14T10:30:47.352Z,37.65
2019-04-14T10:31:49.959Z,35.57
2019-04-14T10:32:47.324Z,35.07
2019-04-14T10:33:47.315Z,34.87
2019-04-14T10:34:47.365Z,35.46
2019-04-14T10:35:47.300Z,35.27
2019-04-14T10:36:47.284Z,35.66
2019-04-14T10:37:47.268Z,35.08
2019-04-14T10:38:47.263Z,35.88
2019-04-14T10:39:47.248Z,35.48
2019-04-14T10:40:47.293Z,35.48
2019-04-14T10:41:47.231Z,35.38
2019-04-14T10:42:47.219Z,35.78
2019-04-14T10:43:47.214Z,36.08
2019-04-14T10:44:47.196Z,35.80
2019-04-14T10:45:47.191Z,36.18
2019-04-14T10:46:47.326Z,36.37
2019-04-14T10:47:47.164Z,36.48
2019-04-14T10:48:47.156Z,36.67
2019-04-14T10:49:47.152Z,36.27
2019-04-14T10:50:47.134Z,37.17
2019-04-14T10:51:47.127Z,35.88
2019-04-14T10:52:47.215Z,36.18
2019-04-14T10:53:47.111Z,37.96
2019-04-14T10:54:47.093Z,36.77
2019-04-14T10:55:47.083Z,37.56
2019-04-14T10:56:47.071Z,37.96
2019-04-14T10:57:47.107Z,37.46
2019-04-14T10:58:47.050Z,36.97
2019-04-14T10:59:47.038Z,37.05
2019-04-14T11:00:47.031Z,37.05
2019-04-14T11:01:47.016Z,38.04
2019-04-14T11:02:47.006Z,38.14
2019-04-14T11:03:47.149Z,37.94
2019-04-14T11:04:46.994Z,36.85
2019-04-14T11:05:46.978Z,37.63
2019-04-14T11:06:46.964Z,37.63
2019-04-14T11:07:46.958Z,37.73
2019-04-14T11:08:46.938Z,36.63
2019-04-14T11:09:46.987Z,36.74
2019-04-14T11:10:46.920Z,36.54
2019-04-14T11:11:46.911Z,36.74
2019-04-14T11:12:46.899Z,37.43
2019-04-14T11:13:46.894Z,37.43
2019-04-14T11:14:46.881Z,38.03
2019-04-14T11:15:46.925Z,37.43
2019-04-14T11:16:46.857Z,37.43
2019-04-14T11:17:46.847Z,37.43
2019-04-14T11:18:46.837Z,37.63
2019-04-14T11:19:46.826Z,37.92
2019-04-14T11:20:46.864Z,38.42
2019-04-14T11:21:46.804Z,37.82
2019-04-14T11:22:46.798Z,38.22
2019-04-14T11:23:46.782Z,37.63
2019-04-14T11:24:46.776Z,37.73
2019-04-14T11:25:46.914Z,37.43
2019-04-14T11:26:46.753Z,38.32
2019-04-14T11:27:46.739Z,37.73
2019-04-14T11:28:46.735Z,38.22
2019-04-14T11:29:46.723Z,37.82
2019-04-14T11:30:46.708Z,37.53
2019-04-14T11:31:46.744Z,37.53
2019-04-14T11:32:46.688Z,38.12
2019-04-14T11:33:46.678Z,37.73
2019-04-14T11:34:46.664Z,37.53
2019-04-14T11:35:46.659Z,38.52
2019-04-14T11:36:46.648Z,38.12
2019-04-14T11:37:46.684Z,38.42
2019-04-14T11:38:46.625Z,38.12
2019-04-14T11:39:46.613Z,38.32
2019-04-14T11:40:46.599Z,37.73
2019-04-14T11:41:46.587Z,37.33
2019-04-14T11:42:52.196Z,37.33
2019-04-14T11:43:47.811Z,37.13
2019-04-14T11:44:46.561Z,36.84
2019-04-14T11:45:46.559Z,36.84
2019-04-14T11:46:46.535Z,37.53
2019-04-14T11:47:46.528Z,36.24
2019-04-14T11:48:46.519Z,35.94
2019-04-14T11:49:46.564Z,36.74
2019-04-14T11:50:46.495Z,37.51
2019-04-14T11:51:55.051Z,37.03
2019-04-14T11:53:11.294Z,37.03
2019-04-14T11:54:11.283Z,36.93
2019-04-14T11:55:11.363Z,37.33
2019-04-14T11:56:11.256Z,36.93
2019-04-14T11:57:11.243Z,37.53
2019-04-14T11:58:11.239Z,37.33
2019-04-14T11:59:11.221Z,38.22
2019-04-14T12:00:11.215Z,37.54
2019-04-14T12:01:11.346Z,37.82
2019-04-14T12:02:11.191Z,38.24
2019-04-14T12:03:11.189Z,37.54
2019-04-14T12:04:11.175Z,37.25
2019-04-14T12:05:11.162Z,38.42
2019-04-14T12:06:11.150Z,38.73
2019-04-14T12:07:11.188Z,38.22
2019-04-14T12:08:11.128Z,37.82
2019-04-14T12:09:11.113Z,40.30
2019-04-14T12:10:11.110Z,40.40
2019-04-14T12:11:11.091Z,41.29
2019-04-14T12:12:11.185Z,40.70
2019-04-14T12:13:11.075Z,40.32
2019-04-14T12:14:11.067Z,39.03
2019-04-14T12:15:15.976Z,40.02
2019-04-14T12:16:11.043Z,41.41
2019-04-14T12:17:11.184Z,40.12
2019-04-14T12:18:11.025Z,42.30
2019-04-14T12:19:11.013Z,40.32
2019-04-14T12:20:11.001Z,40.32
2019-04-14T12:21:10.991Z,40.32
2019-04-14T12:22:10.979Z,42.60
2019-04-14T12:23:11.023Z,40.83
2019-04-14T12:24:10.962Z,41.71
2019-04-14T12:25:10.946Z,42.82
2019-04-14T12:26:10.943Z,42.70
2019-04-14T12:27:10.930Z,42.12
2019-04-14T12:28:11.384Z,42.32
2019-04-14T12:29:11.809Z,41.43
2019-04-14T12:30:11.133Z,39.25
2019-04-14T12:31:10.971Z,40.74
2019-04-14T12:32:10.887Z,43.81
2019-04-14T12:33:10.874Z,43.61
2019-04-14T12:34:10.855Z,44.53
2019-04-14T12:35:10.995Z,43.71
2019-04-14T12:36:10.839Z,43.31
2019-04-14T12:37:10.829Z,45.32
2019-04-14T12:38:10.813Z,45.02
2019-04-14T12:39:10.801Z,45.52
2019-04-14T12:40:10.799Z,45.62
2019-04-14T12:41:10.828Z,43.64
2019-04-14T12:42:10.773Z,45.44
2019-04-14T12:43:10.762Z,46.03
2019-04-14T12:44:10.750Z,45.94
2019-04-14T12:45:10.737Z,46.03
2019-04-14T12:46:10.827Z,46.33
2019-04-14T12:47:10.717Z,45.24
2019-04-14T12:48:10.713Z,45.73
2019-04-14T12:49:10.742Z,47.05
2019-04-14T12:50:10.685Z,41.17
2019-04-14T12:51:10.675Z,45.36
2019-04-14T12:52:20.624Z,45.26
2019-04-14T12:53:35.476Z,46.95
2019-04-14T12:54:35.458Z,46.65
2019-04-14T12:55:35.460Z,46.16
2019-04-14T12:56:35.436Z,46.65
2019-04-14T12:57:35.477Z,46.65
2019-04-14T12:58:35.415Z,44.39
2019-04-14T12:59:35.402Z,43.78
2019-04-14T13:00:35.400Z,47.35
2019-04-14T13:01:35.381Z,45.98
2019-04-14T13:02:38.485Z,44.19
2019-04-14T13:03:37.627Z,46.08
2019-04-14T13:04:35.405Z,47.07
2019-04-14T13:06:00.408Z,47.57
2019-04-14T13:07:00.144Z,48.26
2019-04-14T13:08:00.228Z,47.49
2019-04-14T13:09:00.122Z,48.29
2019-04-14T13:10:00.107Z,45.50
2019-04-14T13:11:00.097Z,48.59
2019-04-14T13:12:00.093Z,47.29
2019-04-14T13:13:00.077Z,49.38
2019-04-14T13:14:00.171Z,49.10
2019-04-14T13:15:02.748Z,48.61
2019-04-14T13:16:00.048Z,49.70
2019-04-14T13:17:00.038Z,49.50
2019-04-14T13:18:00.032Z,49.50
2019-04-14T13:19:00.021Z,49.73
2019-04-14T13:20:00.160Z,49.31
2019-04-14T13:20:59.992Z,50.12
2019-04-14T13:21:59.985Z,50.20
2019-04-14T13:22:59.976Z,50.42
2019-04-14T13:23:59.972Z,50.32
2019-04-14T13:24:59.955Z,46.25
2019-04-14T13:26:00.046Z,49.13
2019-04-14T13:26:59.936Z,44.95
2019-04-14T13:27:59.927Z,45.17
2019-04-14T13:28:59.912Z,49.55
2019-04-14T13:29:59.900Z,46.07
2019-04-14T13:30:59.996Z,50.54
2019-04-14T13:31:59.884Z,49.57
2019-04-14T13:32:59.873Z,49.38
2019-04-14T13:33:59.865Z,49.57
2019-04-14T13:34:59.850Z,46.59
2019-04-14T13:35:59.991Z,46.69
2019-04-14T13:36:59.831Z,49.27
2019-04-14T13:37:59.833Z,47.31
2019-04-14T13:38:59.809Z,46.99
2019-04-14T13:39:59.803Z,48.10
2019-04-14T13:40:59.839Z,47.19
2019-04-14T13:41:59.784Z,49.10
2019-04-14T13:42:59.768Z,47.58
2019-04-14T13:43:59.765Z,47.41
2019-04-14T13:44:59.753Z,47.91
2019-04-14T13:45:59.951Z,48.80
2019-04-14T13:46:59.828Z,47.41
2019-04-14T13:47:59.719Z,49.00
2019-04-14T13:48:59.706Z,48.30
2019-04-14T13:49:59.699Z,49.82
2019-04-14T13:50:59.690Z,47.80
2019-04-14T13:51:59.677Z,49.10
2019-04-14T13:52:59.715Z,49.50
2019-04-14T13:53:59.654Z,48.70
2019-04-14T13:54:59.646Z,49.30